Time;durP1;ratioP1;P1;durP2;ratioP2;P2;SDS_P1;SDS_P2;PMS_P1;PMS_P2;Temp;Humidity;BMP_temperature;BMP_pressure;BME280_temperature;BME280_humidity;BME280_pressure;Samples;Min_cycle;Max_cycle;Signal;HPM_P1;HPM_P2
2023/06/09 00:01:17;;;;;;;0.57;0.57;;;;;;;;;;7390515;19;20153;-92
2023/06/09 00:03:46;;;;;;;0.43;0.43;;;;;;;;;;7390872;19;20458;-92
2023/06/09 00:06:16;;;;;;;0.98;0.95;;;;;;;;;;7395662;19;20159;-92
2023/06/09 00:08:43;;;;;;;0.95;0.95;;;;;;;;;;7397304;19;20146;-91
2023/06/09 00:11:10;;;;;;;0.80;0.80;;;;;;;;;;7393920;19;20156;-91
2023/06/09 00:13:36;;;;;;;1.00;1.00;;;;;;;;;;7397057;19;20133;-91
2023/06/09 00:16:03;;;;;;;0.70;0.70;;;;;;;;;;7398003;19;20141;-91
2023/06/09 00:18:30;;;;;;;0.70;0.70;;;;;;;;;;7390665;19;20137;-91
2023/06/09 00:20:59;;;;;;;0.43;0.43;;;;;;;;;;7394901;19;20624;-92
2023/06/09 00:23:28;;;;;;;0.63;0.63;;;;;;;;;;7395694;19;20139;-92
2023/06/09 00:25:55;;;;;;;0.68;0.68;;;;;;;;;;7395230;19;20144;-92
2023/06/09 00:28:21;;;;;;;0.93;0.93;;;;;;;;;;7395406;19;20141;-92
2023/06/09 00:30:48;;;;;;;0.63;0.63;;;;;;;;;;7394856;19;20139;-93
2023/06/09 00:33:15;;;;;;;0.90;0.85;;;;;;;;;;7392732;19;20137;-92
2023/06/09 00:35:41;;;;;;;1.33;1.23;;;;;;;;;;7391064;19;20200;-92
2023/06/09 00:38:08;;;;;;;0.47;0.47;;;;;;;;;;7388468;19;20148;-92
2023/06/09 00:40:35;;;;;;;0.82;0.82;;;;;;;;;;7393240;19;20144;-92
2023/06/09 00:43:01;;;;;;;0.77;0.77;;;;;;;;;;7390585;19;20663;-93
2023/06/09 00:45:28;;;;;;;0.60;0.60;;;;;;;;;;7393115;19;20128;-92
2023/06/09 00:47:55;;;;;;;1.13;1.02;;;;;;;;;;7391508;19;20253;-92
2023/06/09 00:50:21;;;;;;;0.52;0.52;;;;;;;;;;7392801;19;20150;-92
2023/06/09 00:52:48;;;;;;;0.60;0.60;;;;;;;;;;7388212;19;20518;-92
2023/06/09 00:55:17;;;;;;;0.77;0.77;;;;;;;;;;7386296;19;20220;-92
2023/06/09 00:57:46;;;;;;;1.05;0.93;;;;;;;;;;7391035;19;20125;-92
2023/06/09 01:00:16;;;;;;;0.50;0.50;;;;;;;;;;7394559;19;20144;-93
2023/06/09 01:02:43;;;;;;;0.77;0.77;;;;;;;;;;7392534;19;20160;-92
2023/06/09 01:05:12;;;;;;;0.98;0.98;;;;;;;;;;7395036;19;20155;-92
2023/06/09 01:07:57;;;;;;;0.63;0.63;;;;;;;;;;7392868;19;20135;-93
2023/06/09 01:10:48;;;;;;;0.50;0.50;;;;;;;;;;7393510;19;20192;-92
2023/06/09 01:13:23;;;;;;;0.55;0.55;;;;;;;;;;7395058;19;20139;-93
2023/06/09 01:16:23;;;;;;;1.30;0.90;;;;;;;;;;7396511;19;20139;-92
2023/06/09 01:18:51;;;;;;;1.17;0.70;;;;;;;;;;7388423;19;20606;-93
2023/06/09 01:21:40;;;;;;;0.85;0.85;;;;;;;;;;7388462;19;20152;-93
2023/06/09 01:24:19;;;;;;;0.52;0.52;;;;;;;;;;7394899;19;20192;-93
2023/06/09 01:26:50;;;;;;;0.50;0.50;;;;;;;;;;7398253;19;20489;-92
2023/06/09 01:29:19;;;;;;;1.92;1.83;;;;;;;;;;7392613;19;20145;-90
2023/06/09 01:31:49;;;;;;;1.13;1.08;;;;;;;;;;7395749;19;20160;-93
2023/06/09 01:34:16;;;;;;;0.43;0.43;;;;;;;;;;7396959;19;20144;-93
2023/06/09 01:36:44;;;;;;;1.67;1.67;;;;;;;;;;7423606;19;20132;-95
2023/06/09 01:39:11;;;;;;;0.63;0.63;;;;;;;;;;7428605;19;20179;-96
2023/06/09 01:41:38;;;;;;;1.08;1.05;;;;;;;;;;7430019;19;20141;-96
2023/06/09 01:44:04;;;;;;;0.63;0.63;;;;;;;;;;7428803;19;20144;-92
2023/06/09 01:46:31;;;;;;;0.95;0.95;;;;;;;;;;7413804;19;20137;-92
2023/06/09 01:49:07;;;;;;;0.65;0.65;;;;;;;;;;7416320;19;20145;-92
2023/06/09 01:51:51;;;;;;;0.95;0.80;;;;;;;;;;7417924;19;20161;-92
2023/06/09 01:58:08;;;;;;;0.50;0.50;;;;;;;;;;7393407;19;20126;-90
2023/06/09 02:14:11;;;;;;;0.65;0.65;;;;;;;;;;7412443;19;20679;-92
2023/06/09 02:16:38;;;;;;;0.30;0.30;;;;;;;;;;7405175;19;20153;-91
2023/06/09 02:19:04;;;;;;;1.05;1.05;;;;;;;;;;7393461;19;20153;-91
2023/06/09 02:21:31;;;;;;;0.60;0.60;;;;;;;;;;7392614;19;20189;-92
2023/06/09 02:23:58;;;;;;;0.45;0.45;;;;;;;;;;7394565;19;20129;-91
2023/06/09 02:26:24;;;;;;;0.70;0.70;;;;;;;;;;7391816;19;20136;-92
2023/06/09 02:28:51;;;;;;;0.90;0.90;;;;;;;;;;7389066;19;20137;-91
2023/06/09 02:31:18;;;;;;;0.40;0.40;;;;;;;;;;7393350;19;20209;-91
2023/06/09 02:33:45;;;;;;;0.98;0.88;;;;;;;;;;7393350;19;20152;-92
2023/06/09 02:36:13;;;;;;;0.70;0.70;;;;;;;;;;7394260;19;20200;-92
2023/06/09 02:38:40;;;;;;;2.05;0.57;;;;;;;;;;7393822;19;20141;-93
2023/06/09 02:41:07;;;;;;;0.43;0.43;;;;;;;;;;7390166;19;20149;-91
2023/06/09 02:43:34;;;;;;;0.40;0.40;;;;;;;;;;7390616;19;20135;-92
2023/06/09 02:46:00;;;;;;;1.10;0.70;;;;;;;;;;7391014;19;20117;-92
2023/06/09 02:48:27;;;;;;;0.82;0.82;;;;;;;;;;7390587;19;20553;-91
2023/06/09 02:50:54;;;;;;;1.02;1.02;;;;;;;;;;7384836;19;20652;-92
2023/06/09 02:53:21;;;;;;;0.70;0.70;;;;;;;;;;7391757;19;20141;-92
2023/06/09 02:55:47;;;;;;;0.30;0.30;;;;;;;;;;7391791;19;20161;-92
2023/06/09 02:58:14;;;;;;;0.35;0.35;;;;;;;;;;7390337;19;20140;-94
2023/06/09 03:00:44;;;;;;;0.75;0.75;;;;;;;;;;7390395;19;20124;-93
2023/06/09 03:03:12;;;;;;;0.50;0.50;;;;;;;;;;7388928;19;20157;-93
2023/06/09 03:05:40;;;;;;;0.98;0.98;;;;;;;;;;7389844;19;20627;-93
2023/06/09 03:08:09;;;;;;;0.55;0.55;;;;;;;;;;7386778;19;20143;-92
2023/06/09 03:10:36;;;;;;;0.65;0.65;;;;;;;;;;7388761;19;20136;-92
2023/06/09 03:13:03;;;;;;;0.70;0.70;;;;;;;;;;7391344;19;20133;-92
2023/06/09 03:15:29;;;;;;;0.50;0.50;;;;;;;;;;7391305;19;20141;-93
2023/06/09 03:17:57;;;;;;;1.47;1.17;;;;;;;;;;7390756;19;20156;-91
2023/06/09 03:20:24;;;;;;;1.27;1.27;;;;;;;;;;7390953;19;20133;-92
2023/06/09 03:22:52;;;;;;;1.55;0.60;;;;;;;;;;7390307;19;20160;-92
2023/06/09 03:25:19;;;;;;;0.40;0.40;;;;;;;;;;7386836;19;20141;-92
2023/06/09 03:27:45;;;;;;;0.50;0.50;;;;;;;;;;7391724;19;20196;-91
2023/06/09 03:30:12;;;;;;;0.77;0.70;;;;;;;;;;7392246;19;20145;-92
2023/06/09 03:32:39;;;;;;;0.70;0.70;;;;;;;;;;7389112;19;20621;-92
2023/06/09 03:35:06;;;;;;;0.60;0.60;;;;;;;;;;7392436;19;20197;-92
2023/06/09 03:37:33;;;;;;;0.67;0.67;;;;;;;;;;7389686;19;20148;-91
2023/06/09 03:39:59;;;;;;;0.50;0.50;;;;;;;;;;7394339;19;20153;-92
2023/06/09 03:42:26;;;;;;;0.40;0.40;;;;;;;;;;7396498;19;20169;-93
2023/06/09 03:44:57;;;;;;;0.53;0.50;;;;;;;;;;7398399;19;20151;-93
2023/06/09 03:47:25;;;;;;;1.38;0.57;;;;;;;;;;7399156;19;20184;-91
2023/06/09 03:49:52;;;;;;;0.73;0.73;;;;;;;;;;7398598;19;20133;-93
2023/06/09 03:52:19;;;;;;;1.40;0.93;;;;;;;;;;7395115;19;20157;-92
2023/06/09 03:54:46;;;;;;;1.55;1.15;;;;;;;;;;7394431;19;20128;-92
2023/06/09 03:57:13;;;;;;;1.48;0.80;;;;;;;;;;7398809;19;20129;-92
2023/06/09 03:59:39;;;;;;;0.95;0.95;;;;;;;;;;7397502;19;20152;-92
2023/06/09 04:02:06;;;;;;;1.25;1.15;;;;;;;;;;7388970;19;20600;-91
2023/06/09 04:04:33;;;;;;;2.47;1.80;;;;;;;;;;7397602;19;20477;-92
2023/06/09 04:06:59;;;;;;;1.30;1.27;;;;;;;;;;7393742;19;20145;-91
2023/06/09 04:09:27;;;;;;;0.63;0.63;;;;;;;;;;7397655;19;20145;-91
2023/06/09 04:11:54;;;;;;;0.68;0.68;;;;;;;;;;7398820;19;20149;-92
2023/06/09 04:14:21;;;;;;;0.47;0.47;;;;;;;;;;7399463;19;20143;-92
2023/06/09 04:16:48;;;;;;;0.50;0.50;;;;;;;;;;7398897;19;20129;-93
2023/06/09 04:19:14;;;;;;;2.00;1.03;;;;;;;;;;7395762;19;20145;-91
2023/06/09 04:21:43;;;;;;;0.50;0.50;;;;;;;;;;7397083;19;20160;-92
2023/06/09 04:24:10;;;;;;;0.68;0.68;;;;;;;;;;7399799;19;20141;-92
2023/06/09 04:26:38;;;;;;;1.20;0.98;;;;;;;;;;7402500;19;20153;-92
2023/06/09 04:29:09;;;;;;;0.40;0.40;;;;;;;;;;7405234;19;20137;-92
2023/06/09 04:31:37;;;;;;;0.80;0.80;;;;;;;;;;7392228;19;20185;-92
2023/06/09 04:34:10;;;;;;;1.38;0.88;;;;;;;;;;7394568;19;20751;-91
2023/06/09 04:36:38;;;;;;;0.60;0.60;;;;;;;;;;7396237;19;20152;-92
2023/06/09 04:39:09;;;;;;;0.93;0.93;;;;;;;;;;7399953;19;20140;-92
2023/06/09 04:41:37;;;;;;;1.23;1.13;;;;;;;;;;7394130;19;20149;-92
2023/06/09 04:44:05;;;;;;;0.70;0.67;;;;;;;;;;7392565;19;20137;-92
2023/06/09 04:46:39;;;;;;;0.90;0.82;;;;;;;;;;7394605;19;20137;-92
2023/06/09 04:49:08;;;;;;;0.95;0.88;;;;;;;;;;7396781;19;20137;-92
2023/06/09 04:51:48;;;;;;;0.77;0.77;;;;;;;;;;7391756;19;20169;-92
2023/06/09 04:54:16;;;;;;;1.55;0.75;;;;;;;;;;7394371;19;20145;-91
2023/06/09 04:56:44;;;;;;;0.50;0.50;;;;;;;;;;7394602;19;20617;-92
2023/06/09 04:59:11;;;;;;;0.53;0.53;;;;;;;;;;7392829;19;20217;-91
2023/06/09 05:01:38;;;;;;;1.02;0.93;;;;;;;;;;7395312;19;20213;-91
2023/06/09 05:04:08;;;;;;;0.57;0.57;;;;;;;;;;7390319;19;20143;-92
2023/06/09 05:06:38;;;;;;;1.35;1.33;;;;;;;;;;7397398;19;20144;-92
2023/06/09 05:09:05;;;;;;;0.50;0.50;;;;;;;;;;7397603;19;20133;-91
2023/06/09 05:11:33;;;;;;;0.50;0.50;;;;;;;;;;7392522;19;20169;-91
2023/06/09 05:13:59;;;;;;;1.17;0.88;;;;;;;;;;7392232;19;20496;-90
2023/06/09 05:16:28;;;;;;;0.73;0.73;;;;;;;;;;7394351;19;20208;-91
2023/06/09 05:18:56;;;;;;;0.70;0.70;;;;;;;;;;7393408;19;20141;-91
2023/06/09 05:21:23;;;;;;;0.70;0.70;;;;;;;;;;7392081;19;20172;-91
2023/06/09 05:23:51;;;;;;;0.70;0.70;;;;;;;;;;7392957;19;20208;-91
2023/06/09 05:26:18;;;;;;;1.25;1.13;;;;;;;;;;7390684;19;20140;-92
2023/06/09 05:28:46;;;;;;;0.75;0.75;;;;;;;;;;7401432;19;20145;-92
2023/06/09 05:31:13;;;;;;;1.15;1.05;;;;;;;;;;7401557;19;20177;-92
2023/06/09 05:33:40;;;;;;;0.98;0.98;;;;;;;;;;7402278;19;20140;-92
2023/06/09 05:36:08;;;;;;;0.95;0.95;;;;;;;;;;7399022;19;20133;-92
2023/06/09 05:38:35;;;;;;;1.80;1.48;;;;;;;;;;7398890;19;20140;-93
2023/06/09 05:41:02;;;;;;;1.10;0.98;;;;;;;;;;7397387;19;20189;-93
2023/06/09 05:43:29;;;;;;;0.82;0.82;;;;;;;;;;7397110;19;20146;-92
2023/06/09 05:45:59;;;;;;;0.50;0.50;;;;;;;;;;7396192;19;20208;-94
2023/06/09 05:48:26;;;;;;;0.98;0.98;;;;;;;;;;7393903;19;20551;-93
2023/06/09 05:50:53;;;;;;;0.75;0.75;;;;;;;;;;7398896;19;20197;-93
2023/06/09 05:53:20;;;;;;;0.73;0.73;;;;;;;;;;7393946;19;20610;-94
2023/06/09 05:55:47;;;;;;;1.00;1.00;;;;;;;;;;7393595;19;20133;-92
2023/06/09 05:58:14;;;;;;;0.77;0.77;;;;;;;;;;7398279;19;20137;-92
2023/06/09 06:00:42;;;;;;;0.88;0.88;;;;;;;;;;7391329;19;20145;-92
2023/06/09 06:03:10;;;;;;;0.77;0.77;;;;;;;;;;7389765;19;20164;-93
2023/06/09 06:05:38;;;;;;;0.70;0.70;;;;;;;;;;7387234;19;20140;-94
2023/06/09 06:08:07;;;;;;;1.00;1.00;;;;;;;;;;7390077;19;20153;-93
2023/06/09 06:10:34;;;;;;;1.10;1.10;;;;;;;;;;7390068;19;20139;-92
2023/06/09 06:13:03;;;;;;;0.70;0.70;;;;;;;;;;7390997;19;20137;-92
2023/06/09 06:15:30;;;;;;;0.95;0.95;;;;;;;;;;7393669;19;20145;-92
2023/06/09 06:17:57;;;;;;;1.00;1.00;;;;;;;;;;7390247;19;20137;-92
2023/06/09 06:20:24;;;;;;;0.98;0.98;;;;;;;;;;7392235;19;20148;-93
2023/06/09 06:22:51;;;;;;;1.73;1.35;;;;;;;;;;7391094;19;20172;-94
2023/06/09 06:25:18;;;;;;;0.52;0.52;;;;;;;;;;7391971;19;20133;-93
2023/06/09 06:27:44;;;;;;;0.68;0.68;;;;;;;;;;7391233;19;20513;-94
2023/06/09 06:30:14;;;;;;;2.25;1.55;;;;;;;;;;7392850;19;20125;-92
2023/06/09 06:32:51;;;;;;;0.93;0.82;;;;;;;;;;7390090;19;20224;-93
2023/06/09 06:35:26;;;;;;;0.70;0.70;;;;;;;;;;7391908;19;20139;-93
2023/06/09 06:37:53;;;;;;;0.93;0.93;;;;;;;;;;7392505;19;20147;-92
2023/06/09 06:40:21;;;;;;;1.45;1.35;;;;;;;;;;7392850;19;20156;-92
2023/06/09 06:42:47;;;;;;;0.75;0.75;;;;;;;;;;7395074;19;20157;-91
2023/06/09 06:45:14;;;;;;;0.95;0.65;;;;;;;;;;7394847;19;20137;-92
2023/06/09 06:47:42;;;;;;;1.17;1.13;;;;;;;;;;7388268;19;20231;-92
2023/06/09 06:50:09;;;;;;;1.27;1.17;;;;;;;;;;7391998;19;20145;-92
2023/06/09 06:52:36;;;;;;;1.58;0.90;;;;;;;;;;7390499;19;20658;-92
2023/06/09 06:55:06;;;;;;;1.02;0.73;;;;;;;;;;7392942;19;20143;-92
2023/06/09 06:57:34;;;;;;;0.82;0.82;;;;;;;;;;7392937;19;20136;-91
2023/06/09 07:00:07;;;;;;;1.50;1.40;;;;;;;;;;7394308;19;20189;-91
2023/06/09 07:02:35;;;;;;;1.58;1.48;;;;;;;;;;7390798;19;20191;-92
2023/06/09 07:05:03;;;;;;;0.65;0.65;;;;;;;;;;7392584;19;20169;-92
2023/06/09 07:07:29;;;;;;;0.77;0.77;;;;;;;;;;7392239;19;20141;-91
2023/06/09 07:09:56;;;;;;;1.42;1.20;;;;;;;;;;7390223;19;20587;-92
2023/06/09 07:12:23;;;;;;;0.80;0.80;;;;;;;;;;7390369;19;20539;-92
2023/06/09 07:14:49;;;;;;;1.00;1.00;;;;;;;;;;7400280;19;20147;-91
2023/06/09 07:17:16;;;;;;;1.05;1.05;;;;;;;;;;7401421;19;20151;-92
2023/06/09 07:19:43;;;;;;;1.48;1.05;;;;;;;;;;7399072;19;20151;-90
2023/06/09 07:22:10;;;;;;;0.88;0.88;;;;;;;;;;7397804;19;20149;-91
2023/06/09 07:24:36;;;;;;;1.10;1.02;;;;;;;;;;7398049;19;20133;-91
2023/06/09 07:27:03;;;;;;;0.52;0.52;;;;;;;;;;7401220;19;20132;-92
2023/06/09 07:29:30;;;;;;;1.30;1.20;;;;;;;;;;7401311;19;20204;-90
2023/06/09 07:31:57;;;;;;;1.92;1.83;;;;;;;;;;7406845;19;20149;-91
2023/06/09 07:34:27;;;;;;;0.73;0.73;;;;;;;;;;7405885;19;20166;-90
2023/06/09 07:36:54;;;;;;;0.82;0.82;;;;;;;;;;7417316;19;20141;-92
2023/06/09 07:39:20;;;;;;;1.52;1.42;;;;;;;;;;7431037;19;20148;-93
2023/06/09 07:41:47;;;;;;;1.05;0.95;;;;;;;;;;7429058;19;20196;-92
2023/06/09 07:44:14;;;;;;;0.82;0.82;;;;;;;;;;7428197;19;20133;-92
2023/06/09 07:46:41;;;;;;;0.85;0.85;;;;;;;;;;7422467;19;20168;-91
2023/06/09 07:49:08;;;;;;;0.80;0.80;;;;;;;;;;7394847;19;20157;-91
2023/06/09 07:51:37;;;;;;;0.77;0.77;;;;;;;;;;7393710;19;20172;-91
2023/06/09 07:54:06;;;;;;;1.08;1.02;;;;;;;;;;7395740;19;20154;-92
2023/06/09 07:56:33;;;;;;;1.30;1.20;;;;;;;;;;7397325;19;20125;-92
2023/06/09 07:58:59;;;;;;;0.93;0.93;;;;;;;;;;7398017;19;20145;-91
2023/06/09 08:01:26;;;;;;;0.70;0.70;;;;;;;;;;7396220;19;20649;-91
2023/06/09 08:03:53;;;;;;;0.70;0.70;;;;;;;;;;7395205;19;20120;-91
2023/06/09 08:06:20;;;;;;;0.65;0.65;;;;;;;;;;7392946;19;20137;-91
2023/06/09 08:08:46;;;;;;;0.90;0.90;;;;;;;;;;7394586;19;20132;-92
2023/06/09 08:11:13;;;;;;;0.63;0.63;;;;;;;;;;7392252;19;20152;-92
2023/06/09 08:13:40;;;;;;;1.13;0.80;;;;;;;;;;7393938;19;20697;-91
2023/06/09 08:16:06;;;;;;;1.42;1.27;;;;;;;;;;7396753;19;20121;-91
2023/06/09 08:18:33;;;;;;;0.98;0.98;;;;;;;;;;7393308;19;20137;-92
2023/06/09 08:21:01;;;;;;;1.15;1.15;;;;;;;;;;7392385;19;20152;-92
2023/06/09 08:23:27;;;;;;;0.77;0.77;;;;;;;;;;7395872;19;20137;-91
2023/06/09 08:25:55;;;;;;;0.77;0.77;;;;;;;;;;7393648;19;20638;-90
2023/06/09 08:28:22;;;;;;;1.75;1.63;;;;;;;;;;7396207;19;20474;-91
2023/06/09 08:30:48;;;;;;;0.50;0.50;;;;;;;;;;7394777;19;20133;-90
2023/06/09 08:33:15;;;;;;;1.02;1.02;;;;;;;;;;7393861;19;20153;-92
2023/06/09 08:35:42;;;;;;;2.20;0.93;;;;;;;;;;7394832;19;20152;-91
2023/06/09 08:38:09;;;;;;;0.68;0.68;;;;;;;;;;7396285;19;20132;-91
2023/06/09 08:40:35;;;;;;;1.08;0.98;;;;;;;;;;7396020;19;20145;-92
2023/06/09 08:43:04;;;;;;;0.68;0.68;;;;;;;;;;7392491;19;20137;-90
2023/06/09 08:45:33;;;;;;;0.90;0.90;;;;;;;;;;7391553;19;20136;-89
2023/06/09 08:48:01;;;;;;;0.90;0.90;;;;;;;;;;7392561;19;20220;-89
2023/06/09 08:50:29;;;;;;;0.90;0.90;;;;;;;;;;7393396;19;20148;-89
2023/06/09 08:52:56;;;;;;;0.70;0.70;;;;;;;;;;7390842;19;20179;-89
2023/06/09 08:55:23;;;;;;;1.65;0.93;;;;;;;;;;7393787;19;20133;-88
2023/06/09 08:57:50;;;;;;;0.50;0.50;;;;;;;;;;7394022;19;20139;-88
2023/06/09 09:00:17;;;;;;;1.10;1.08;;;;;;;;;;7395950;19;20135;-89
2023/06/09 09:02:44;;;;;;;0.70;0.70;;;;;;;;;;7398607;19;20213;-89
2023/06/09 09:05:11;;;;;;;0.60;0.60;;;;;;;;;;7399418;19;20144;-89
2023/06/09 09:07:39;;;;;;;1.42;1.02;;;;;;;;;;7397515;19;20137;-89
2023/06/09 09:10:06;;;;;;;1.02;1.02;;;;;;;;;;7398849;19;20129;-89
2023/06/09 09:12:50;;;;;;;0.68;0.68;;;;;;;;;;7398842;19;20544;-89
2023/06/09 09:15:18;;;;;;;0.55;0.55;;;;;;;;;;7397551;19;20152;-88
2023/06/09 09:17:46;;;;;;;0.82;0.80;;;;;;;;;;7400596;19;20152;-89
2023/06/09 09:20:16;;;;;;;0.73;0.73;;;;;;;;;;7401175;19;20169;-89
2023/06/09 09:22:48;;;;;;;0.80;0.80;;;;;;;;;;7395753;19;20172;-89
2023/06/09 09:25:26;;;;;;;0.52;0.52;;;;;;;;;;7395901;19;20133;-89
2023/06/09 09:28:05;;;;;;;0.82;0.82;;;;;;;;;;7397211;19;20166;-89
2023/06/09 09:30:52;;;;;;;0.88;0.88;;;;;;;;;;7400777;19;20204;-89
2023/06/09 09:33:24;;;;;;;1.02;0.95;;;;;;;;;;7402786;19;20614;-90
2023/06/09 09:35:53;;;;;;;1.15;0.98;;;;;;;;;;7399163;19;20141;-90
2023/06/09 09:38:24;;;;;;;1.25;1.15;;;;;;;;;;7397395;19;20169;-91
2023/06/09 09:40:52;;;;;;;0.93;0.93;;;;;;;;;;7399528;19;20476;-89
2023/06/09 09:43:20;;;;;;;0.75;0.75;;;;;;;;;;7396828;19;20677;-89
2023/06/09 09:45:52;;;;;;;0.50;0.50;;;;;;;;;;7395920;19;20167;-89
2023/06/09 09:48:21;;;;;;;0.80;0.80;;;;;;;;;;7395598;19;20200;-89
2023/06/09 09:50:51;;;;;;;1.00;0.73;;;;;;;;;;7398053;19;20481;-89
2023/06/09 09:53:23;;;;;;;1.17;1.08;;;;;;;;;;7400748;19;20155;-88
2023/06/09 09:55:52;;;;;;;1.13;0.95;;;;;;;;;;7399691;19;20161;-90
2023/06/09 09:58:21;;;;;;;0.80;0.80;;;;;;;;;;7397464;19;20140;-90
2023/06/09 10:00:48;;;;;;;0.73;0.73;;;;;;;;;;7409353;19;20159;-90
2023/06/09 10:03:17;;;;;;;1.00;1.00;;;;;;;;;;7412953;19;20665;-90
2023/06/09 10:05:48;;;;;;;1.05;1.05;;;;;;;;;;7398465;19;20133;-90
2023/06/09 10:08:26;;;;;;;1.20;0.80;;;;;;;;;;7396304;19;20141;-90
2023/06/09 10:10:56;;;;;;;1.13;1.00;;;;;;;;;;7418952;19;20129;-90
2023/06/09 10:13:26;;;;;;;2.00;0.75;;;;;;;;;;7427918;19;20148;-90
2023/06/09 10:15:53;;;;;;;1.48;1.38;;;;;;;;;;7426309;19;20173;-91
2023/06/09 10:18:21;;;;;;;1.02;1.02;;;;;;;;;;7427516;19;20161;-91
2023/06/09 10:20:50;;;;;;;0.30;0.30;;;;;;;;;;7429095;19;20141;-90
2023/06/09 10:23:17;;;;;;;1.02;0.98;;;;;;;;;;7427624;19;20133;-91
2023/06/09 10:25:51;;;;;;;1.30;1.30;;;;;;;;;;7429574;19;20173;-89
2023/06/09 10:28:19;;;;;;;0.90;0.90;;;;;;;;;;7429514;19;20237;-90
2023/06/09 10:30:47;;;;;;;0.80;0.80;;;;;;;;;;7413906;19;20499;-90
2023/06/09 10:33:29;;;;;;;0.82;0.63;;;;;;;;;;7405669;19;20128;-90
2023/06/09 10:35:58;;;;;;;0.95;0.95;;;;;;;;;;7404289;19;20143;-89
2023/06/09 10:38:31;;;;;;;0.80;0.80;;;;;;;;;;7395072;19;20155;-88
2023/06/09 10:41:33;;;;;;;1.08;1.08;;;;;;;;;;7393727;19;20171;-89
2023/06/09 10:44:40;;;;;;;1.00;0.90;;;;;;;;;;7396394;19;20160;-89
2023/06/09 10:47:08;;;;;;;0.65;0.65;;;;;;;;;;7399563;19;20165;-90
2023/06/09 10:49:36;;;;;;;0.68;0.68;;;;;;;;;;7400177;19;20129;-89
2023/06/09 10:52:08;;;;;;;1.38;1.27;;;;;;;;;;7402885;19;20185;-91
2023/06/09 10:54:35;;;;;;;0.77;0.77;;;;;;;;;;7404479;19;20636;-90
2023/06/09 10:57:05;;;;;;;1.10;1.00;;;;;;;;;;7404989;19;20133;-89
2023/06/09 10:59:31;;;;;;;0.93;0.93;;;;;;;;;;7400666;19;20197;-88
2023/06/09 11:02:11;;;;;;;0.82;0.80;;;;;;;;;;7399051;19;20662;-88
2023/06/09 11:04:38;;;;;;;0.95;0.95;;;;;;;;;;7401333;19;20149;-90
2023/06/09 11:07:12;;;;;;;0.77;0.77;;;;;;;;;;7394789;19;20160;-90
2023/06/09 11:09:40;;;;;;;0.90;0.90;;;;;;;;;;7391865;19;20480;-90
2023/06/09 11:12:30;;;;;;;0.85;0.85;;;;;;;;;;7390259;19;20168;-90
2023/06/09 11:14:58;;;;;;;0.65;0.52;;;;;;;;;;7389642;19;20149;-90
2023/06/09 11:17:36;;;;;;;0.50;0.50;;;;;;;;;;7392531;19;20208;-91
2023/06/09 11:20:09;;;;;;;1.00;1.00;;;;;;;;;;7390432;19;20647;-90
2023/06/09 11:22:40;;;;;;;0.68;0.68;;;;;;;;;;7388610;19;20149;-91
2023/06/09 11:25:08;;;;;;;0.70;0.70;;;;;;;;;;7393363;19;20150;-90
2023/06/09 11:27:35;;;;;;;1.25;1.23;;;;;;;;;;7391165;19;20216;-91
2023/06/09 11:30:18;;;;;;;0.93;0.93;;;;;;;;;;7387324;19;20153;-91
2023/06/09 11:32:47;;;;;;;0.60;0.60;;;;;;;;;;7389532;19;20183;-91
2023/06/09 11:35:22;;;;;;;1.00;1.00;;;;;;;;;;7397665;19;20162;-91
2023/06/09 11:37:50;;;;;;;1.13;1.02;;;;;;;;;;7399352;19;20148;-90
2023/06/09 11:40:17;;;;;;;1.80;0.63;;;;;;;;;;7400113;19;20147;-91
2023/06/09 11:42:45;;;;;;;1.58;0.93;;;;;;;;;;7395493;19;20599;-91
2023/06/09 11:45:12;;;;;;;0.77;0.77;;;;;;;;;;7399168;19;20145;-92
2023/06/09 11:47:43;;;;;;;0.70;0.70;;;;;;;;;;7396941;19;20147;-91
2023/06/09 11:50:12;;;;;;;0.70;0.70;;;;;;;;;;7395030;19;20148;-91
2023/06/09 11:52:44;;;;;;;1.23;1.15;;;;;;;;;;7394972;19;20157;-91
2023/06/09 11:55:13;;;;;;;0.60;0.60;;;;;;;;;;7396208;19;20145;-91
2023/06/09 11:57:39;;;;;;;0.95;0.95;;;;;;;;;;7392633;19;20148;-90
2023/06/09 12:00:14;;;;;;;1.65;1.40;;;;;;;;;;7396544;19;20153;-91
2023/06/09 12:02:42;;;;;;;0.80;0.52;;;;;;;;;;7405108;19;20153;-90
2023/06/09 12:05:10;;;;;;;0.65;0.65;;;;;;;;;;7407264;19;20150;-91
2023/06/09 12:07:37;;;;;;;0.88;0.88;;;;;;;;;;7407350;19;20143;-92
2023/06/09 12:10:04;;;;;;;0.80;0.80;;;;;;;;;;7402952;19;20139;-91
2023/06/09 12:12:41;;;;;;;0.90;0.90;;;;;;;;;;7401480;19;20176;-91
2023/06/09 12:15:10;;;;;;;0.50;0.50;;;;;;;;;;7402332;19;20137;-91
2023/06/09 12:17:37;;;;;;;2.35;1.13;;;;;;;;;;7406225;19;20603;-91
2023/06/09 12:20:27;;;;;;;1.05;0.98;;;;;;;;;;7405340;19;20209;-91
2023/06/09 12:22:55;;;;;;;0.68;0.68;;;;;;;;;;7402249;19;20189;-90
2023/06/09 12:25:38;;;;;;;0.57;0.57;;;;;;;;;;7402790;19;20147;-91
2023/06/09 12:28:23;;;;;;;0.40;0.40;;;;;;;;;;7403273;19;20136;-88
2023/06/09 12:30:51;;;;;;;0.57;0.57;;;;;;;;;;7400561;19;20140;-89
2023/06/09 12:33:20;;;;;;;0.65;0.65;;;;;;;;;;7404959;19;20129;-89
2023/06/09 12:35:48;;;;;;;1.23;1.15;;;;;;;;;;7404374;19;20604;-90
2023/06/09 12:38:21;;;;;;;0.77;0.77;;;;;;;;;;7404438;19;20154;-90
2023/06/09 12:40:50;;;;;;;0.98;0.90;;;;;;;;;;7402239;19;20614;-89
2023/06/09 12:43:18;;;;;;;0.70;0.70;;;;;;;;;;7402906;19;20180;-90
2023/06/09 12:45:46;;;;;;;0.70;0.70;;;;;;;;;;7401553;19;20129;-90
2023/06/09 12:48:14;;;;;;;0.60;0.60;;;;;;;;;;7400657;19;20200;-90
2023/06/09 12:50:43;;;;;;;0.45;0.45;;;;;;;;;;7400691;19;20169;-91
2023/06/09 12:53:11;;;;;;;0.80;0.80;;;;;;;;;;7402892;19;20154;-90
2023/06/09 12:55:38;;;;;;;0.93;0.93;;;;;;;;;;7403557;19;20129;-91
2023/06/09 12:58:07;;;;;;;0.70;0.70;;;;;;;;;;7405532;19;20128;-89
2023/06/09 13:00:36;;;;;;;1.42;1.15;;;;;;;;;;7402676;19;20644;-90
2023/06/09 13:03:09;;;;;;;1.20;1.08;;;;;;;;;;7402004;19;20144;-89
2023/06/09 13:05:40;;;;;;;0.77;0.77;;;;;;;;;;7407171;19;20136;-89
2023/06/09 13:08:10;;;;;;;1.55;1.45;;;;;;;;;;7404949;19;20984;-89
2023/06/09 13:11:09;;;;;;;1.10;0.90;;;;;;;;;;7399912;19;20632;-91
2023/06/09 13:14:05;;;;;;;0.73;0.73;;;;;;;;;;7398512;19;20141;-93
2023/06/09 13:16:52;;;;;;;0.70;0.70;;;;;;;;;;7398589;19;20223;-92
2023/06/09 13:20:02;;;;;;;0.85;0.85;;;;;;;;;;7396332;19;20257;-92
2023/06/09 13:23:27;;;;;;;1.00;1.00;;;;;;;;;;7393583;19;20164;-91
2023/06/09 13:27:23;;;;;;;;;;;;;;;;;;;;;
